Time;durP1;ratioP1;P1;durP2;ratioP2;P2;SDS_P1;SDS_P2;PMS_P1;PMS_P2;Temp;Humidity;BMP_temperature;BMP_pressure;BME280_temperature;BME280_humidity;BME280_pressure;Samples;Min_cycle;Max_cycle;Signal;HPM_P1;HPM_P2
2022/04/01 04:30:54;;;;;;;;;1.00;1.00;;;;;4.01;68.33;99970.13;5054508;27;46150;-76
2022/04/01 04:33:26;;;;;;;;;0.25;0.25;;;;;4.11;67.56;99980.41;5034002;28;45438;-77
2022/04/01 04:35:51;;;;;;;;;0.00;0.00;;;;;4.06;68.00;99986.78;5033609;28;45541;-76
2022/04/01 04:38:20;;;;;;;;;0.50;0.50;;;;;4.02;67.77;99980.69;5034047;28;46473;-76
2022/04/01 04:40:46;;;;;;;;;2.00;1.00;;;;;4.09;67.32;99978.69;5033680;28;45354;-76
2022/04/01 04:43:18;;;;;;;;;0.00;0.00;;;;;4.10;66.96;99981.31;5034255;28;45297;-76
2022/04/01 04:45:48;;;;;;;;;0.00;0.00;;;;;4.03;67.71;99968.31;5031927;28;46589;-75
2022/04/01 04:48:16;;;;;;;;;0.00;0.00;;;;;4.12;67.20;100003.38;5033622;28;45425;-77
2022/04/01 04:50:46;;;;;;;;;0.75;0.75;;;;;3.96;66.82;99977.38;5034127;28;45323;-78
2022/04/01 04:53:13;;;;;;;;;0.00;0.00;;;;;4.05;67.16;99988.56;5034195;28;45351;-77
2022/04/01 04:55:40;;;;;;;;;0.75;0.75;;;;;4.09;66.82;99999.91;5044671;28;45405;-76
2022/04/01 04:58:08;;;;;;;;;0.50;0.50;;;;;3.96;67.14;99986.19;5033624;28;45369;-76
2022/04/01 05:00:35;;;;;;;;;1.00;1.00;;;;;4.10;66.38;99999.88;5034579;28;45303;-77
2022/04/01 05:03:22;;;;;;;;;1.75;1.00;;;;;4.19;66.49;100010.19;5036579;28;45451;-77
2022/04/01 05:05:51;;;;;;;;;1.00;1.00;;;;;4.21;65.54;100002.19;5037004;28;45731;-75
2022/04/01 05:09:06;;;;;;;;;1.00;1.00;;;;;4.28;65.57;99993.13;5039537;28;46147;-74
2022/04/01 05:11:50;;;;;;;;;1.00;1.00;;;;;4.29;64.62;99994.88;5024013;28;45507;-75
2022/04/01 05:14:53;;;;;;;;;1.00;1.00;;;;;4.23;64.94;100008.34;5036626;28;45406;-74
2022/04/01 05:17:30;;;;;;;;;0.75;0.75;;;;;4.30;64.59;100032.88;5036465;28;46551;-72
2022/04/01 05:19:59;;;;;;;;;1.00;1.00;;;;;4.31;65.31;100003.66;5036729;28;46399;-78
2022/04/01 05:22:36;;;;;;;;;0.25;0.25;;;;;4.31;65.15;100019.56;5036645;28;45376;-73
2022/04/01 05:25:04;;;;;;;;;1.00;1.00;;;;;4.31;65.52;100013.41;5036310;28;45355;-71
2022/04/01 05:27:32;;;;;;;;;1.50;1.50;;;;;4.35;65.54;100013.22;5036375;28;45517;-76
2022/04/01 05:30:18;;;;;;;;;0.75;0.00;;;;;4.35;65.59;99999.09;5036163;28;46659;-74
2022/04/01 05:33:09;;;;;;;;;0.00;0.00;;;;;4.42;65.43;100016.59;5035935;28;45423;-75
2022/04/01 05:35:40;;;;;;;;;0.75;0.75;;;;;4.10;65.07;99981.31;5036488;28;45348;-74
2022/04/01 05:38:09;;;;;;;;;0.50;0.50;;;;;4.23;64.87;100004.81;5036490;28;45218;-74
2022/04/01 05:40:36;;;;;;;;;3.75;1.00;;;;;4.38;64.94;100041.47;5036246;28;45478;-76
2022/04/01 05:43:04;;;;;;;;;1.00;1.00;;;;;4.42;64.58;100025.38;5037011;28;45306;-75
2022/04/01 05:45:30;;;;;;;;;2.75;1.50;;;;;4.27;64.35;100009.09;5036237;28;45427;-76
2022/04/01 05:47:57;;;;;;;;;2.00;2.00;;;;;4.33;64.89;100016.88;5035031;28;46784;-72
2022/04/01 05:50:24;;;;;;;;;1.00;1.00;;;;;4.37;64.87;100031.75;5036082;28;46322;-72
2022/04/01 05:52:51;;;;;;;;;3.50;2.00;;;;;4.38;65.04;100022.88;5036415;28;45359;-73
2022/04/01 05:55:20;;;;;;;;;0.50;0.50;;;;;4.50;64.33;100049.91;5045967;28;45317;-70
2022/04/01 05:57:46;;;;;;;;;1.00;1.00;;;;;4.06;64.32;99960.25;5034415;28;45501;-72
2022/04/01 06:00:12;;;;;;;;;0.75;0.75;;;;;4.63;64.70;100045.06;5035668;28;45588;-73
2022/04/01 06:02:55;;;;;;;;;1.00;1.00;;;;;4.66;63.92;100046.75;5035828;28;45403;-72
2022/04/01 06:05:33;;;;;;;;;2.00;2.00;;;;;4.64;63.53;100045.94;5036402;28;45500;-72
2022/04/01 06:08:17;;;;;;;;;4.00;4.00;;;;;4.64;64.37;100059.19;5035814;28;45299;-72
2022/04/01 06:10:58;;;;;;;;;2.50;2.50;;;;;4.70;65.00;100057.22;5034846;28;46063;-72
2022/04/01 06:14:00;;;;;;;;;2.00;2.00;;;;;4.64;64.16;100065.38;5035029;28;45236;-72
2022/04/01 06:16:27;;;;;;;;;2.50;2.50;;;;;4.65;64.27;100076.88;5034837;28;45332;-73
2022/04/01 06:19:08;;;;;;;;;2.00;2.00;;;;;4.74;64.58;100082.75;5034906;28;45305;-72
2022/04/01 06:21:47;;;;;;;;;4.50;4.50;;;;;4.81;65.14;100081.63;5034515;28;45386;-72
2022/04/01 06:24:44;;;;;;;;;4.00;4.00;;;;;4.83;64.08;100087.78;5035393;28;45313;-73
2022/04/01 06:27:13;;;;;;;;;4.00;4.00;;;;;4.73;64.12;100077.50;5010584;28;45291;-72
2022/04/01 06:29:47;;;;;;;;;4.75;3.25;;;;;4.61;64.72;100084.06;5035935;28;45477;-72
2022/04/01 06:32:24;;;;;;;;;2.00;2.00;;;;;4.57;64.60;100093.06;5035533;28;45669;-72
2022/04/01 06:35:11;;;;;;;;;3.00;2.00;;;;;4.62;65.44;100084.94;5035159;28;45360;-71
2022/04/01 06:37:42;;;;;;;;;4.00;4.00;;;;;4.65;65.59;100087.50;5034869;28;45405;-72
2022/04/01 06:40:10;;;;;;;;;5.00;5.00;;;;;4.63;65.89;100090.19;5033324;28;45281;-73
2022/04/01 06:42:37;;;;;;;;;6.00;5.00;;;;;4.69;65.47;100100.59;5032440;28;46025;-73
2022/04/01 06:45:08;;;;;;;;;4.00;4.00;;;;;4.55;65.83;100098.41;5034771;28;45334;-72
2022/04/01 06:47:37;;;;;;;;;4.00;4.00;;;;;4.46;66.25;100116.41;5035539;28;45374;-72
2022/04/01 06:50:04;;;;;;;;;5.00;2.00;;;;;4.49;67.05;100095.06;5035269;28;45411;-73
2022/04/01 06:52:30;;;;;;;;;5.00;5.00;;;;;4.60;66.17;100118.59;5029237;28;45720;-71
2022/04/01 06:54:56;;;;;;;;;4.00;4.00;;;;;4.62;66.51;100114.13;5032263;28;45627;-75
2022/04/01 06:57:22;;;;;;;;;7.75;5.00;;;;;4.72;66.94;100111.13;5032117;28;45502;-71
2022/04/01 06:59:48;;;;;;;;;5.75;5.75;;;;;4.75;65.52;100126.97;5032149;28;45450;-73
2022/04/01 07:02:14;;;;;;;;;5.00;5.00;;;;;4.67;66.54;100120.19;5031264;28;46365;-72
2022/04/01 07:04:39;;;;;;;;;8.25;5.75;;;;;4.68;67.14;100121.91;5034272;28;45388;-72
2022/04/01 07:07:04;;;;;;;;;8.75;5.00;;;;;4.68;67.04;100127.22;5034937;28;45308;-73
2022/04/01 07:09:30;;;;;;;;;6.00;6.00;;;;;4.62;66.82;100120.31;5033129;28;45621;-72
2022/04/01 07:12:01;;;;;;;;;6.75;6.75;;;;;4.67;66.70;100131.66;5034023;28;45877;-73
2022/04/01 07:14:31;;;;;;;;;13.00;8.00;;;;;4.70;67.31;100138.66;5033955;28;45335;-72
2022/04/01 07:16:58;;;;;;;;;7.25;7.25;;;;;4.72;66.24;100136.81;5034779;28;45375;-73
2022/04/01 07:19:23;;;;;;;;;7.25;7.25;;;;;4.76;67.07;100131.38;5034264;28;45367;-71
2022/04/01 07:21:49;;;;;;;;;10.75;9.50;;;;;4.75;65.98;100128.75;5034837;28;45395;-73
2022/04/01 07:24:15;;;;;;;;;6.00;5.00;;;;;4.73;66.19;100146.53;5034841;28;45486;-72
2022/04/01 07:26:41;;;;;;;;;8.75;6.25;;;;;4.56;66.16;100115.19;5007432;28;45614;-73
2022/04/01 07:29:06;;;;;;;;;5.00;5.00;;;;;4.79;66.66;100136.56;5026892;28;45527;-71
2022/04/01 07:34:24;;;;;;;;;10.00;8.00;;;;;4.85;65.90;100135.50;5033056;28;45531;-72
2022/04/01 07:36:50;;;;;;;;;9.75;9.00;;;;;4.88;65.94;100140.72;5016550;28;45420;-73
2022/04/01 07:39:15;;;;;;;;;10.25;6.75;;;;;4.83;66.40;100145.31;5034522;28;45420;-73
2022/04/01 07:41:41;;;;;;;;;8.25;8.25;;;;;4.75;66.18;100137.59;5016247;28;48202;-72
2022/04/01 07:44:07;;;;;;;;;6.00;6.00;;;;;4.75;66.96;100140.25;5034066;28;45340;-73
2022/04/01 07:46:32;;;;;;;;;7.50;7.50;;;;;4.80;66.75;100153.38;5034121;28;45485;-73
2022/04/01 07:48:58;;;;;;;;;11.25;9.50;;;;;4.78;67.07;100169.34;5029448;28;45344;-73
2022/04/01 07:51:24;;;;;;;;;8.25;8.25;;;;;4.79;66.74;100156.94;5027503;28;45496;-71
2022/04/01 07:53:49;;;;;;;;;9.00;9.00;;;;;4.79;67.05;100165.78;5038197;28;45355;-72
2022/04/01 07:56:14;;;;;;;;;8.00;8.00;;;;;4.80;66.63;100169.31;5033442;28;45481;-72
2022/04/01 07:58:40;;;;;;;;;12.50;8.50;;;;;4.85;66.71;100172.69;5033201;28;45486;-72
2022/04/01 08:01:05;;;;;;;;;8.00;8.00;;;;;4.81;66.00;100176.34;5034262;28;45381;-73
2022/04/01 08:03:30;;;;;;;;;8.25;8.25;;;;;4.83;66.59;100180.72;5034262;28;45283;-73
2022/04/01 08:05:58;;;;;;;;;9.50;8.25;;;;;4.88;65.65;100181.44;5034709;28;45403;-74
2022/04/01 08:08:23;;;;;;;;;8.50;8.50;;;;;4.86;66.20;100185.03;5034311;28;45304;-72
2022/04/01 08:10:49;;;;;;;;;9.00;6.50;;;;;4.83;65.48;100190.47;5034023;28;46185;-72
2022/04/01 08:13:14;;;;;;;;;8.25;8.25;;;;;4.83;66.01;100193.13;5034151;28;45311;-72
2022/04/01 08:15:40;;;;;;;;;9.75;9.75;;;;;4.89;65.63;100191.13;5033162;28;45475;-72
2022/04/01 08:18:06;;;;;;;;;7.25;7.25;;;;;5.00;65.24;100205.88;5033667;28;45342;-71
2022/04/01 08:20:31;;;;;;;;;9.00;9.00;;;;;5.05;65.33;100209.25;5036674;28;46524;-71
2022/04/01 08:22:57;;;;;;;;;12.75;10.00;;;;;5.10;65.02;100216.16;5035531;28;45233;-72
2022/04/01 08:25:23;;;;;;;;;6.00;6.00;;;;;5.09;64.87;100213.56;5036474;28;45269;-71
2022/04/01 08:27:48;;;;;;;;;7.50;7.50;;;;;5.12;64.90;100218.75;5035779;28;46249;-74
2022/04/01 08:30:14;;;;;;;;;7.25;6.00;;;;;5.15;64.88;100229.28;5033891;28;45374;-72
2022/04/01 08:32:39;;;;;;;;;7.75;7.00;;;;;5.18;65.40;100219.44;5033701;28;45345;-72
2022/04/01 08:35:07;;;;;;;;;9.00;7.00;;;;;5.19;64.12;100215.84;5035487;28;45322;-71
2022/04/01 08:37:32;;;;;;;;;11.00;11.00;;;;;5.23;64.25;100227.25;5037811;28;45482;-73
2022/04/01 08:39:58;;;;;;;;;7.25;7.25;;;;;5.22;64.72;100222.84;5037362;28;45434;-73
2022/04/01 08:42:26;;;;;;;;;9.25;9.25;;;;;5.30;63.89;100231.44;5038100;28;45450;-71
2022/04/01 08:44:52;;;;;;;;;9.00;9.00;;;;;5.26;64.08;100243.97;5038743;28;45423;-73
2022/04/01 08:47:17;;;;;;;;;8.00;6.25;;;;;5.31;63.58;100255.31;5036794;28;45439;-73
2022/04/01 08:49:42;;;;;;;;;7.50;7.50;;;;;5.35;63.32;100258.75;5036422;28;45414;-73
2022/04/01 08:52:08;;;;;;;;;9.25;9.25;;;;;5.35;63.83;100239.28;5036962;28;45305;-72
2022/04/01 08:54:35;;;;;;;;;9.00;8.75;;;;;5.31;63.83;100257.97;5047315;28;45473;-74
2022/04/01 08:57:03;;;;;;;;;11.25;10.00;;;;;5.23;63.60;100238.75;5037950;28;45528;-72
2022/04/01 08:59:29;;;;;;;;;9.00;9.00;;;;;5.31;63.54;100249.13;5036291;28;45566;-73
2022/04/01 09:02:06;;;;;;;;;11.25;9.00;;;;;5.47;63.75;100273.41;5036937;28;45407;-73
2022/04/01 09:04:31;;;;;;;;;10.50;9.00;;;;;5.47;63.27;100263.66;5036617;28;45415;-71
2022/04/01 09:07:09;;;;;;;;;10.75;10.75;;;;;5.47;62.96;100273.41;5037646;28;45375;-72
2022/04/01 09:09:35;;;;;;;;;8.50;8.50;;;;;5.47;62.23;100276.94;5037264;28;46587;-72
2022/04/01 09:12:17;;;;;;;;;4.00;4.00;;;;;5.47;62.22;100270.75;5036952;28;45253;-72
2022/04/01 09:14:53;;;;;;;;;8.50;8.50;;;;;5.46;61.90;100277.00;5035973;28;45423;-73
2022/04/01 09:17:19;;;;;;;;;10.75;10.75;;;;;5.49;62.10;100276.91;5036531;28;45400;-71
2022/04/01 09:19:44;;;;;;;;;10.00;10.00;;;;;5.49;61.73;100279.56;5036746;28;46223;-72
2022/04/01 09:22:24;;;;;;;;;9.75;9.75;;;;;5.48;61.73;100289.31;5018451;28;45934;-73
2022/04/01 09:24:57;;;;;;;;;12.50;9.75;;;;;5.55;62.59;100305.94;5036827;28;45336;-73
2022/04/01 09:27:51;;;;;;;;;10.50;10.50;;;;;5.55;61.87;100301.50;5036353;28;45349;-73
2022/04/01 09:30:26;;;;;;;;;10.00;10.00;;;;;5.49;61.16;100296.38;5033628;28;45534;-73
2022/04/01 09:32:55;;;;;;;;;10.00;10.00;;;;;5.51;61.50;100302.53;5036036;28;45391;-73
2022/04/01 09:35:24;;;;;;;;;7.50;7.50;;;;;5.54;61.61;100318.38;5036618;28;45340;-71
2022/04/01 09:37:54;;;;;;;;;10.50;10.00;;;;;5.54;61.24;100313.06;5036702;28;45355;-73
2022/04/01 09:40:22;;;;;;;;;10.75;9.75;;;;;5.61;61.32;100327.88;5036935;28;47000;-72
2022/04/01 09:42:51;;;;;;;;;9.75;9.75;;;;;5.53;60.47;100297.16;5037130;28;45490;-75
2022/04/01 09:45:22;;;;;;;;;9.25;9.25;;;;;5.53;60.90;100308.66;5036161;28;45426;-73
2022/04/01 09:48:04;;;;;;;;;10.00;10.00;;;;;5.64;60.62;100326.91;5036170;28;45515;-73
2022/04/01 09:50:34;;;;;;;;;10.00;10.00;;;;;5.66;61.07;100319.78;5035780;28;46272;-72
2022/04/01 09:53:10;;;;;;;;;10.50;10.50;;;;;5.66;60.69;100322.44;5035849;28;45470;-72
2022/04/01 09:55:46;;;;;;;;;10.25;9.00;;;;;5.61;60.80;100332.34;5047001;28;45527;-72
2022/04/01 09:58:13;;;;;;;;;9.00;9.00;;;;;5.59;60.23;100323.56;5036012;28;45474;-72
2022/04/01 10:00:40;;;;;;;;;15.25;11.75;;;;;5.69;60.93;100336.50;5034965;28;46248;-71
2022/04/01 10:03:07;;;;;;;;;9.75;9.75;;;;;5.68;61.23;100339.22;5034990;28;45522;-71
2022/04/01 10:05:35;;;;;;;;;13.25;9.25;;;;;5.60;60.89;100325.28;5034252;28;45433;-72
2022/04/01 10:08:03;;;;;;;;;14.25;10.00;;;;;5.80;61.17;100348.56;5034577;28;45546;-72
2022/04/01 10:10:29;;;;;;;;;12.50;12.50;;;;;5.87;61.05;100343.00;5036566;28;45736;-74
2022/04/01 10:13:00;;;;;;;;;12.50;9.75;;;;;5.84;60.39;100315.63;5035882;28;45269;-71
2022/04/01 10:15:28;;;;;;;;;11.00;11.00;;;;;5.92;60.00;100345.53;5034868;28;45569;-74
2022/04/01 10:17:56;;;;;;;;;10.25;10.25;;;;;5.96;59.75;100345.38;5036009;28;45371;-73
2022/04/01 10:20:28;;;;;;;;;12.50;12.50;;;;;5.98;59.76;100348.88;5034970;28;45398;-72
2022/04/01 10:22:54;;;;;;;;;11.00;11.00;;;;;5.97;59.82;100347.13;5034753;28;45350;-72
2022/04/01 10:26:01;;;;;;;;;10.00;10.00;;;;;5.97;59.86;100362.22;5035336;28;45558;-71
2022/04/01 10:28:27;;;;;;;;;11.75;11.00;;;;;6.01;60.13;100359.41;5009575;28;45448;-73
2022/04/01 10:30:58;;;;;;;;;12.25;12.25;;;;;6.03;60.13;100375.34;5035679;28;46179;-72
2022/04/01 10:33:26;;;;;;;;;10.50;10.50;;;;;6.02;59.30;100361.16;5035792;28;45354;-71
2022/04/01 10:35:54;;;;;;;;;14.25;11.25;;;;;6.02;59.21;100352.31;5035685;28;45521;-72
2022/04/01 10:38:26;;;;;;;;;12.25;12.25;;;;;6.01;58.88;100350.56;5035616;28;45337;-72
2022/04/01 10:40:53;;;;;;;;;12.00;11.00;;;;;6.00;59.41;100354.16;5035585;28;45514;-73
2022/04/01 10:43:32;;;;;;;;;10.00;10.00;;;;;5.94;58.92;100351.69;5035700;28;45401;-73
2022/04/01 10:46:05;;;;;;;;;9.75;9.75;;;;;6.07;58.54;100379.63;5017975;28;45337;-75
2022/04/01 10:51:39;;;;;;;;;12.50;11.25;;;;;6.11;58.72;100388.38;5035660;28;45440;-75
2022/04/01 10:54:13;;;;;;;;;10.00;8.25;;;;;6.10;58.49;100378.66;5044344;28;45358;-76
2022/04/01 10:57:05;;;;;;;;;14.75;11.75;;;;;5.99;58.13;100381.66;5043050;28;45277;-75
2022/04/01 10:59:42;;;;;;;;;10.75;10.75;;;;;6.04;58.93;100407.19;5037325;28;45641;-77
2022/04/01 11:02:15;;;;;;;;;13.50;12.00;;;;;5.91;59.07;100371.28;5035922;28;46108;-79
2022/04/01 11:04:42;;;;;;;;;11.25;10.25;;;;;6.06;58.87;100401.81;5035104;28;45399;-75
2022/04/01 11:07:23;;;;;;;;;13.50;10.50;;;;;5.88;58.82;100360.72;5035106;28;45340;-75
2022/04/01 11:09:54;;;;;;;;;14.50;11.75;;;;;5.93;58.71;100389.84;5038671;28;45348;-75
2022/04/01 11:12:34;;;;;;;;;12.00;10.00;;;;;6.02;59.21;100405.53;5035238;28;46255;-76
2022/04/01 11:15:00;;;;;;;;;14.25;14.25;;;;;6.07;59.40;100408.91;5034929;28;45427;-75
2022/04/01 11:17:34;;;;;;;;;14.25;12.00;;;;;6.10;59.35;100408.81;5035001;28;45276;-73
2022/04/01 11:20:07;;;;;;;;;15.00;12.00;;;;;6.12;58.67;100398.13;5034823;28;45610;-74
2022/04/01 11:22:36;;;;;;;;;10.25;10.25;;;;;6.14;58.36;100407.75;5034771;28;45205;-75
2022/04/01 11:25:03;;;;;;;;;18.50;14.00;;;;;6.10;58.65;100392.84;5036131;28;45498;-74
2022/04/01 11:27:29;;;;;;;;;10.00;10.00;;;;;6.14;58.61;100413.09;5035475;28;45330;-77
2022/04/01 11:30:13;;;;;;;;;12.25;12.25;;;;;6.16;58.11;100429.88;5016765;28;45492;-72
2022/04/01 11:32:41;;;;;;;;;10.75;10.00;;;;;6.17;59.00;100420.09;5034379;28;45353;-70
2022/04/01 11:35:09;;;;;;;;;18.50;14.50;;;;;6.21;58.60;100432.41;5034833;28;45501;-71
2022/04/01 11:37:39;;;;;;;;;14.00;11.50;;;;;6.22;58.33;100424.34;5034686;28;45341;-71
2022/04/01 11:40:10;;;;;;;;;15.50;11.75;;;;;6.15;58.30;100413.97;5034577;28;45208;-71
2022/04/01 11:42:53;;;;;;;;;12.25;12.25;;;;;6.12;57.96;100428.25;5033968;28;46122;-71
2022/04/01 11:45:20;;;;;;;;;10.75;10.75;;;;;6.13;58.33;100418.44;5033578;28;45410;-78
2022/04/01 11:47:46;;;;;;;;;11.75;10.00;;;;;6.08;57.99;100413.31;5039933;28;45398;-76
2022/04/01 11:50:15;;;;;;;;;12.25;12.25;;;;;6.19;58.49;100444.91;5015348;28;47786;-76
2022/04/01 11:52:42;;;;;;;;;15.25;12.25;;;;;6.19;58.05;100432.47;5046730;28;46067;-76
2022/04/01 11:55:26;;;;;;;;;18.75;14.75;;;;;6.19;58.02;100444.91;5049267;28;45577;-75
2022/04/01 11:57:58;;;;;;;;;13.50;10.25;;;;;6.11;58.21;100438.94;5053802;28;45237;-77
2022/04/01 12:00:27;;;;;;;;;14.00;14.00;;;;;6.14;58.24;100446.81;5030693;28;45194;-77
2022/04/01 12:02:54;;;;;;;;;16.00;14.25;;;;;6.13;58.04;100451.25;5038092;28;46399;-76
2022/04/01 12:05:22;;;;;;;;;14.50;12.00;;;;;6.04;59.22;100446.22;5014191;28;45515;-78
2022/04/01 12:10:39;;;;;;;;;15.75;12.50;;;;;6.12;59.62;100451.34;5033962;28;45643;-77
2022/04/01 12:13:09;;;;;;;;;13.75;12.75;;;;;6.17;59.46;100460.03;5035602;28;45478;-76
2022/04/01 12:15:46;;;;;;;;;14.75;10.00;;;;;6.20;59.83;100468.81;5034504;28;45380;-76
2022/04/01 12:18:16;;;;;;;;;14.75;14.75;;;;;6.17;59.24;100452.91;5035329;28;45372;-77
2022/04/01 12:20:44;;;;;;;;;14.25;12.00;;;;;6.18;59.38;100467.09;5033940;28;45601;-79
2022/04/01 12:23:09;;;;;;;;;13.00;13.00;;;;;6.15;59.36;100460.06;5035052;28;45428;-77
2022/04/01 12:25:38;;;;;;;;;15.25;12.25;;;;;6.01;58.72;100444.56;5033282;28;45487;-76
2022/04/01 12:28:12;;;;;;;;;15.50;14.25;;;;;6.12;59.68;100468.19;5032428;28;45430;-76
2022/04/01 12:30:46;;;;;;;;;16.00;14.50;;;;;6.09;59.54;100465.59;5033503;28;45597;-75
2022/04/01 12:33:24;;;;;;;;;13.75;13.25;;;;;6.21;59.22;100477.66;5033987;28;46649;-77
2022/04/01 12:36:08;;;;;;;;;15.25;12.25;;;;;6.14;59.66;100449.47;5034395;28;45433;-75
2022/04/01 12:38:35;;;;;;;;;14.25;14.25;;;;;6.25;59.49;100492.59;5034121;28;45467;-78
2022/04/01 12:41:05;;;;;;;;;12.25;9.25;;;;;6.20;57.81;100479.44;5033772;28;46059;-77
2022/04/01 12:43:45;;;;;;;;;15.25;15.25;;;;;6.20;57.94;100481.25;5034354;28;45730;-77
2022/04/01 12:46:21;;;;;;;;;14.50;11.25;;;;;6.15;58.63;100475.16;5034543;28;45577;-78
2022/04/01 12:48:53;;;;;;;;;19.25;15.75;;;;;6.26;58.19;100497.88;5016891;28;45333;-77
2022/04/01 12:51:34;;;;;;;;;14.00;14.00;;;;;6.22;57.97;100484.69;5033865;28;45455;-77
2022/04/01 12:54:02;;;;;;;;;15.00;13.00;;;;;6.15;58.30;100469.84;5013444;28;46644;-78
2022/04/01 12:56:34;;;;;;;;;11.50;11.50;;;;;6.26;58.18;100471.25;5034566;28;45277;-76
2022/04/01 12:59:08;;;;;;;;;10.50;8.75;;;;;6.38;58.76;100493.97;5034896;28;45332;-77
2022/04/01 13:01:37;;;;;;;;;12.75;11.50;;;;;6.22;58.40;100472.25;5032801;28;45440;-76
2022/04/01 13:04:05;;;;;;;;;12.75;12.75;;;;;6.38;58.65;100496.63;5034465;28;45326;-78
2022/04/01 13:06:30;;;;;;;;;17.50;15.00;;;;;6.40;58.76;100494.75;5034761;28;45425;-78
2022/04/01 13:09:07;;;;;;;;;17.00;15.25;;;;;6.44;59.28;100502.59;5029769;28;45613;-77
2022/04/01 13:11:38;;;;;;;;;22.00;15.50;;;;;6.47;59.24;100499.81;5034359;28;46672;-77
2022/04/01 13:14:25;;;;;;;;;10.75;10.50;;;;;6.45;59.21;100496.38;5034572;28;45410;-77
2022/04/01 13:16:53;;;;;;;;;15.00;15.00;;;;;6.47;58.87;100505.16;5033910;28;45360;-78
2022/04/01 13:19:30;;;;;;;;;16.75;15.00;;;;;6.43;58.82;100507.97;5034320;28;45482;-77
2022/04/01 13:22:02;;;;;;;;;16.00;14.25;;;;;6.43;59.46;100507.97;5035496;28;45549;-77
2022/04/01 13:24:37;;;;;;;;;20.00;20.00;;;;;6.40;59.92;100500.94;5036992;28;46324;-76
2022/04/01 13:27:08;;;;;;;;;15.00;14.00;;;;;6.19;60.20;100480.38;5034562;28;45518;-79
2022/04/01 13:29:35;;;;;;;;;13.00;13.00;;;;;6.34;59.80;100522.47;5037052;28;45360;-77
2022/04/01 13:32:00;;;;;;;;;18.25;18.00;;;;;6.28;60.14;100520.00;5029751;28;46150;-77
2022/04/01 13:34:26;;;;;;;;;14.00;14.00;;;;;6.17;60.87;100521.25;5037340;28;46138;-79
2022/04/01 13:36:52;;;;;;;;;16.50;15.50;;;;;6.06;60.67;100518.91;5036907;28;45486;-79
2022/04/01 13:39:18;;;;;;;;;18.25;18.25;;;;;6.11;60.44;100527.66;5037746;28;45265;-78
2022/04/01 13:41:44;;;;;;;;;22.00;16.00;;;;;6.02;59.45;100507.50;5036925;28;45384;-78
2022/04/01 13:44:11;;;;;;;;;17.00;15.50;;;;;5.94;60.06;100500.69;5036374;28;45327;-77
2022/04/01 13:46:37;;;;;;;;;20.00;18.00;;;;;6.12;59.57;100520.53;5036699;28;45256;-78
2022/04/01 13:49:03;;;;;;;;;20.25;15.25;;;;;6.09;59.90;100510.84;5037827;28;45356;-76
2022/04/01 13:51:30;;;;;;;;;18.00;16.25;;;;;6.14;60.35;100530.19;5036853;28;46019;-77
2022/04/01 13:53:56;;;;;;;;;16.00;15.50;;;;;6.08;59.47;100509.09;5041899;28;45519;-78
2022/04/01 13:56:22;;;;;;;;;16.75;15.50;;;;;6.16;59.14;100531.03;5042945;28;45409;-77
2022/04/01 13:58:47;;;;;;;;;15.50;12.00;;;;;6.12;58.12;100524.06;5035788;28;45743;-77
2022/04/01 14:01:13;;;;;;;;;18.00;15.50;;;;;6.11;59.33;100532.09;5039346;28;45909;-76
2022/04/01 14:03:39;;;;;;;;;14.00;11.00;;;;;6.12;58.55;100537.38;5045518;28;45655;-77
2022/04/01 14:06:06;;;;;;;;;20.00;20.00;;;;;6.06;58.78;100541.06;5041039;28;45339;-77
2022/04/01 14:08:32;;;;;;;;;19.75;18.75;;;;;5.93;59.76;100515.78;5036157;28;45316;-77
2022/04/01 14:10:57;;;;;;;;;11.00;11.00;;;;;6.02;59.11;100538.56;5036666;28;45473;-77
2022/04/01 14:13:23;;;;;;;;;21.25;18.25;;;;;6.04;59.97;100550.03;5036730;28;45976;-77
2022/04/01 14:15:48;;;;;;;;;18.50;18.25;;;;;5.99;60.25;100543.97;5037994;28;45174;-77
2022/04/01 14:18:13;;;;;;;;;19.00;19.00;;;;;5.97;60.05;100543.16;5030436;28;45845;-77
2022/04/01 14:20:39;;;;;;;;;19.75;18.75;;;;;5.91;60.53;100546.88;5036942;28;45412;-79
2022/04/01 14:23:04;;;;;;;;;18.50;16.50;;;;;5.95;60.46;100566.28;5035706;28;46472;-78
2022/04/01 14:25:30;;;;;;;;;19.75;15.00;;;;;5.75;61.14;100536.69;5033081;28;45988;-78
2022/04/01 14:27:55;;;;;;;;;24.25;19.50;;;;;5.85;60.94;100554.13;5037568;28;45316;-79
2022/04/01 14:30:22;;;;;;;;;16.25;15.00;;;;;5.86;61.08;100556.75;5036516;28;45558;-77
2022/04/01 14:32:50;;;;;;;;;21.00;18.00;;;;;5.91;60.25;100560.19;5035351;28;46516;-78
2022/04/01 14:35:16;;;;;;;;;16.00;16.00;;;;;5.90;60.97;100569.06;5037293;28;45371;-77
2022/04/01 14:37:41;;;;;;;;;22.25;20.75;;;;;5.92;60.90;100572.56;5037140;28;45394;-78
2022/04/01 14:40:08;;;;;;;;;22.25;18.00;;;;;5.88;61.34;100546.94;5035837;28;45305;-79
2022/04/01 14:42:34;;;;;;;;;17.50;17.25;;;;;5.99;61.17;100554.63;5036130;28;46568;-77
2022/04/01 14:45:01;;;;;;;;;20.25;16.50;;;;;5.97;60.29;100556.44;5037225;28;45383;-78
2022/04/01 14:47:27;;;;;;;;;18.75;15.25;;;;;5.82;60.90;100528.50;5037053;28;45517;-77
2022/04/01 14:49:53;;;;;;;;;18.25;16.00;;;;;6.08;59.67;100568.53;5036997;28;45433;-77
2022/04/01 14:52:19;;;;;;;;;19.50;18.75;;;;;6.10;60.18;100579.13;5019237;28;47088;-76
2022/04/01 14:54:44;;;;;;;;;24.75;18.75;;;;;5.91;60.27;100556.63;5033464;28;45399;-78
2022/04/01 14:57:10;;;;;;;;;24.50;22.25;;;;;6.04;59.93;100580.16;5031615;28;45924;-79
2022/04/01 14:59:35;;;;;;;;;21.50;17.75;;;;;5.89;59.88;100556.69;5033769;28;45523;-77
2022/04/01 15:02:01;;;;;;;;;19.75;17.75;;;;;5.92;61.11;100567.25;5037004;28;46252;-77
2022/04/01 15:04:26;;;;;;;;;26.50;20.50;;;;;6.07;61.43;100596.06;5036196;28;45274;-78
2022/04/01 15:06:52;;;;;;;;;22.25;18.75;;;;;5.98;60.65;100572.38;5035757;28;45755;-78
2022/04/01 15:09:19;;;;;;;;;20.50;19.50;;;;;6.07;60.80;100595.19;5035580;28;45174;-74
2022/04/01 15:11:45;;;;;;;;;20.75;16.25;;;;;5.91;62.21;100565.50;5036147;28;45435;-78
2022/04/01 15:14:10;;;;;;;;;23.75;19.25;;;;;6.05;61.95;100605.00;5018674;28;45419;-78
2022/04/01 15:16:36;;;;;;;;;15.75;15.75;;;;;5.96;62.22;100594.63;5041301;28;45312;-79
2022/04/01 15:19:01;;;;;;;;;23.67;19.00;;;;;6.02;61.88;100611.28;5043320;28;45340;-79
2022/04/01 15:21:26;;;;;;;;;1.00;1.00;;;;;5.87;62.11;100589.56;5038493;28;46082;-77
2022/04/01 15:23:52;;;;;;;;;22.25;19.50;;;;;5.89;61.64;100599.25;5038852;28;45338;-74
2022/04/01 15:26:18;;;;;;;;;17.00;13.50;;;;;6.02;62.46;100626.38;5017551;28;45513;-78
2022/04/01 15:28:43;;;;;;;;;20.00;14.75;;;;;6.02;62.33;100621.06;5034164;28;45316;-77
2022/04/01 15:31:09;;;;;;;;;28.00;19.00;;;;;6.00;62.80;100617.56;5034979;28;45813;-79
2022/04/01 15:33:35;;;;;;;;;22.50;18.50;;;;;6.05;62.35;100631.59;5034863;28;45461;-76
2022/04/01 15:36:01;;;;;;;;;17.75;17.75;;;;;6.06;62.05;100628.03;5016711;28;45362;-76
2022/04/01 15:38:31;;;;;;;;;19.75;15.50;;;;;6.06;61.53;100628.91;5016782;28;47381;-75
2022/04/01 15:41:02;;;;;;;;;25.25;19.50;;;;;6.13;61.88;100645.56;5035319;28;45704;-79
2022/04/01 15:43:29;;;;;;;;;18.50;16.25;;;;;6.17;62.20;100636.56;5035135;28;45408;-78
2022/04/01 15:45:57;;;;;;;;;22.00;18.25;;;;;6.11;60.41;100627.91;5035573;28;45486;-77
2022/04/01 15:48:22;;;;;;;;;19.00;17.00;;;;;6.12;60.77;100617.22;5032385;28;45572;-77
2022/04/01 15:50:48;;;;;;;;;23.00;18.75;;;;;6.24;59.70;100632.81;5033709;28;45517;-79
2022/04/01 15:53:13;;;;;;;;;17.00;17.00;;;;;6.29;59.36;100632.69;5034330;28;47157;-78
2022/04/01 15:55:39;;;;;;;;;19.50;19.25;;;;;6.32;59.54;100632.56;5045454;28;45462;-78
2022/04/01 15:58:05;;;;;;;;;15.75;14.00;;;;;6.35;58.67;100640.47;5016633;28;46008;-78
2022/04/01 16:00:32;;;;;;;;;19.50;16.50;;;;;6.37;58.19;100638.66;5034265;28;46243;-78
2022/04/01 16:03:02;;;;;;;;;16.50;15.25;;;;;6.39;57.28;100655.44;5015867;28;45571;-78
2022/04/01 16:05:28;;;;;;;;;18.75;16.50;;;;;6.42;56.36;100642.91;5034811;28;45488;-79
2022/04/01 16:07:56;;;;;;;;;18.25;17.00;;;;;6.44;57.24;100649.06;5034088;28;45549;-78
2022/04/01 16:10:22;;;;;;;;;22.25;15.50;;;;;6.49;57.08;100643.59;5034488;28;46398;-78
2022/04/01 16:12:50;;;;;;;;;16.25;16.25;;;;;6.50;56.90;100640.00;5034547;28;45400;-77
2022/04/01 16:15:15;;;;;;;;;17.50;15.50;;;;;6.52;55.65;100646.16;5034248;28;45385;-80